sensor_id;sensor_type;location;lat;lon;timestamp;temperature;humidity
52849;DHT22;38714;53.180;5.812;2022-08-11T00:01:20;18.70;99.90
52849;DHT22;38714;53.180;5.812;2022-08-11T00:03:50;18.70;99.90
52849;DHT22;38714;53.180;5.812;2022-08-11T00:06:30;18.70;99.90
52849;DHT22;38714;53.180;5.812;2022-08-11T00:08:57;18.70;99.90
52849;DHT22;38714;53.180;5.812;2022-08-11T00:11:35;18.70;99.90
52849;DHT22;38714;53.180;5.812;2022-08-11T00:14:03;18.70;99.90
52849;DHT22;38714;53.180;5.812;2022-08-11T00:16:29;18.60;99.90
52849;DHT22;38714;53.180;5.812;2022-08-11T00:18:56;18.60;99.90
52849;DHT22;38714;53.180;5.812;2022-08-11T00:21:25;18.60;99.90
52849;DHT22;38714;53.180;5.812;2022-08-11T00:23:58;18.60;99.90
52849;DHT22;38714;53.180;5.812;2022-08-11T00:26:26;18.60;99.90
52849;DHT22;38714;53.180;5.812;2022-08-11T00:28:52;18.50;99.90
52849;DHT22;38714;53.180;5.812;2022-08-11T00:31:30;18.50;99.90
52849;DHT22;38714;53.180;5.812;2022-08-11T00:33:57;18.50;99.90
52849;DHT22;38714;53.180;5.812;2022-08-11T00:37:06;18.50;99.90
52849;DHT22;38714;53.180;5.812;2022-08-11T00:39:33;18.50;99.90
52849;DHT22;38714;53.180;5.812;2022-08-11T00:42:26;18.50;99.90
52849;DHT22;38714;53.180;5.812;2022-08-11T00:50:39;18.40;99.90
52849;DHT22;38714;53.180;5.812;2022-08-11T01:01:57;18.30;99.90
52849;DHT22;38714;53.180;5.812;2022-08-11T01:05:13;18.30;99.90
52849;DHT22;38714;53.180;5.812;2022-08-11T01:10:46;18.20;99.90
52849;DHT22;38714;53.180;5.812;2022-08-11T01:13:38;18.20;99.90
52849;DHT22;38714;53.180;5.812;2022-08-11T01:22:15;18.10;99.90
52849;DHT22;38714;53.180;5.812;2022-08-11T01:27:24;18.10;99.90
52849;DHT22;38714;53.180;5.812;2022-08-11T01:30:09;18.10;99.90
52849;DHT22;38714;53.180;5.812;2022-08-11T01:38:02;18.00;99.90
52849;DHT22;38714;53.180;5.812;2022-08-11T01:41:00;18.00;99.90
52849;DHT22;38714;53.180;5.812;2022-08-11T01:46:30;18.00;99.90
52849;DHT22;38714;53.180;5.812;2022-08-11T01:51:47;18.00;99.90
52849;DHT22;38714;53.180;5.812;2022-08-11T01:54:27;17.90;99.90
52849;DHT22;38714;53.180;5.812;2022-08-11T01:59:40;17.90;99.90
52849;DHT22;38714;53.180;5.812;2022-08-11T02:05:19;17.90;99.90
52849;DHT22;38714;53.180;5.812;2022-08-11T02:07:55;17.80;99.90
52849;DHT22;38714;53.180;5.812;2022-08-11T02:10:24;17.80;99.90
52849;DHT22;38714;53.180;5.812;2022-08-11T02:15:55;17.80;99.90
52849;DHT22;38714;53.180;5.812;2022-08-11T02:18:32;17.80;99.90
52849;DHT22;38714;53.180;5.812;2022-08-11T02:21:18;17.80;99.90
52849;DHT22;38714;53.180;5.812;2022-08-11T02:24:23;17.80;99.90
52849;DHT22;38714;53.180;5.812;2022-08-11T02:26:54;17.70;99.90
52849;DHT22;38714;53.180;5.812;2022-08-11T02:29:41;17.70;99.90
52849;DHT22;38714;53.180;5.812;2022-08-11T02:45:03;17.70;99.90
52849;DHT22;38714;53.180;5.812;2022-08-11T03:00:46;17.50;99.90
52849;DHT22;38714;53.180;5.812;2022-08-11T03:03:28;17.50;99.90
52849;DHT22;38714;53.180;5.812;2022-08-11T03:08:28;17.40;99.90
52849;DHT22;38714;53.180;5.812;2022-08-11T03:11:04;17.40;99.90
52849;DHT22;38714;53.180;5.812;2022-08-11T03:16:40;17.40;99.90
52849;DHT22;38714;53.180;5.812;2022-08-11T03:19:24;17.40;99.90
52849;DHT22;38714;53.180;5.812;2022-08-11T03:21:58;17.30;99.90
52849;DHT22;38714;53.180;5.812;2022-08-11T03:27:17;17.30;99.90
52849;DHT22;38714;53.180;5.812;2022-08-11T03:29:52;17.30;99.90
52849;DHT22;38714;53.180;5.812;2022-08-11T03:32:36;17.30;99.90
52849;DHT22;38714;53.180;5.812;2022-08-11T03:35:05;17.30;99.90
52849;DHT22;38714;53.180;5.812;2022-08-11T03:43:42;17.30;99.90
52849;DHT22;38714;53.180;5.812;2022-08-11T03:46:21;17.30;99.90
52849;DHT22;38714;53.180;5.812;2022-08-11T03:49:06;17.30;99.90
52849;DHT22;38714;53.180;5.812;2022-08-11T03:51:44;17.20;99.90
52849;DHT22;38714;53.180;5.812;2022-08-11T03:54:18;17.20;99.90
52849;DHT22;38714;53.180;5.812;2022-08-11T04:02:04;17.20;99.90
52849;DHT22;38714;53.180;5.812;2022-08-11T04:09:46;17.20;99.90
52849;DHT22;38714;53.180;5.812;2022-08-11T04:17:59;17.10;99.90
52849;DHT22;38714;53.180;5.812;2022-08-11T04:26:04;17.10;99.90
52849;DHT22;38714;53.180;5.812;2022-08-11T04:31:33;17.10;99.90
52849;DHT22;38714;53.180;5.812;2022-08-11T04:39:26;17.10;99.90
52849;DHT22;38714;53.180;5.812;2022-08-11T04:42:05;17.10;99.90
52849;DHT22;38714;53.180;5.812;2022-08-11T04:50:46;17.10;99.90
52849;DHT22;38714;53.180;5.812;2022-08-11T04:56:22;17.10;99.90
52849;DHT22;38714;53.180;5.812;2022-08-11T05:05:08;17.20;99.90
52849;DHT22;38714;53.180;5.812;2022-08-11T05:13:29;17.30;99.90
52849;DHT22;38714;53.180;5.812;2022-08-11T05:16:18;17.30;99.90
52849;DHT22;38714;53.180;5.812;2022-08-11T05:19:03;17.30;99.90
52849;DHT22;38714;53.180;5.812;2022-08-11T05:21:52;17.40;99.90
52849;DHT22;38714;53.180;5.812;2022-08-11T05:24:46;17.40;99.90
52849;DHT22;38714;53.180;5.812;2022-08-11T05:27:39;17.40;99.90
52849;DHT22;38714;53.180;5.812;2022-08-11T05:30:27;17.40;99.90
52849;DHT22;38714;53.180;5.812;2022-08-11T05:33:14;17.40;99.90
52849;DHT22;38714;53.180;5.812;2022-08-11T05:36:25;17.50;99.90
52849;DHT22;38714;53.180;5.812;2022-08-11T05:38:48;17.50;99.90
52849;DHT22;38714;53.180;5.812;2022-08-11T05:41:33;17.50;99.90
52849;DHT22;38714;53.180;5.812;2022-08-11T05:44:18;17.50;99.90
52849;DHT22;38714;53.180;5.812;2022-08-11T05:47:03;17.60;99.90
52849;DHT22;38714;53.180;5.812;2022-08-11T05:49:48;17.60;99.90
52849;DHT22;38714;53.180;5.812;2022-08-11T05:52:32;17.60;99.90
52849;DHT22;38714;53.180;5.812;2022-08-11T05:55:17;17.60;99.90
52849;DHT22;38714;53.180;5.812;2022-08-11T05:58:02;17.60;99.90
52849;DHT22;38714;53.180;5.812;2022-08-11T06:00:29;17.70;99.90
52849;DHT22;38714;53.180;5.812;2022-08-11T06:02:58;17.70;99.90
52849;DHT22;38714;53.180;5.812;2022-08-11T06:05:58;17.70;99.90
52849;DHT22;38714;53.180;5.812;2022-08-11T06:08:16;17.70;99.90
52849;DHT22;38714;53.180;5.812;2022-08-11T06:10:43;17.80;99.90
52849;DHT22;38714;53.180;5.812;2022-08-11T06:13:09;17.80;99.90
52849;DHT22;38714;53.180;5.812;2022-08-11T06:15:48;17.80;99.90
52849;DHT22;38714;53.180;5.812;2022-08-11T06:18:16;17.80;99.90
52849;DHT22;38714;53.180;5.812;2022-08-11T06:23:13;17.90;99.90
52849;DHT22;38714;53.180;5.812;2022-08-11T06:25:42;17.90;99.90
52849;DHT22;38714;53.180;5.812;2022-08-11T06:28:07;18.00;99.90
52849;DHT22;38714;53.180;5.812;2022-08-11T06:30:35;18.00;99.90
52849;DHT22;38714;53.180;5.812;2022-08-11T06:33:05;18.00;99.90
52849;DHT22;38714;53.180;5.812;2022-08-11T06:35:35;18.10;99.90
52849;DHT22;38714;53.180;5.812;2022-08-11T06:38:07;18.10;99.90
52849;DHT22;38714;53.180;5.812;2022-08-11T06:40:42;18.20;99.90
52849;DHT22;38714;53.180;5.812;2022-08-11T06:43:30;18.20;99.90
52849;DHT22;38714;53.180;5.812;2022-08-11T06:46:02;18.30;99.90
52849;DHT22;38714;53.180;5.812;2022-08-11T06:48:28;18.30;99.90
52849;DHT22;38714;53.180;5.812;2022-08-11T06:50:59;18.40;99.90
52849;DHT22;38714;53.180;5.812;2022-08-11T06:53:42;18.40;99.90
52849;DHT22;38714;53.180;5.812;2022-08-11T06:56:09;18.50;99.90
52849;DHT22;38714;53.180;5.812;2022-08-11T06:58:53;18.50;99.90
52849;DHT22;38714;53.180;5.812;2022-08-11T07:01:52;18.50;99.90
52849;DHT22;38714;53.180;5.812;2022-08-11T07:04:26;18.60;99.90
52849;DHT22;38714;53.180;5.812;2022-08-11T07:07:05;18.70;99.90
52849;DHT22;38714;53.180;5.812;2022-08-11T07:12:40;18.80;99.90
52849;DHT22;38714;53.180;5.812;2022-08-11T07:15:32;18.80;99.90
52849;DHT22;38714;53.180;5.812;2022-08-11T07:18:07;18.90;99.90
52849;DHT22;38714;53.180;5.812;2022-08-11T07:20:52;18.90;99.90
52849;DHT22;38714;53.180;5.812;2022-08-11T07:23:38;19.00;99.90
52849;DHT22;38714;53.180;5.812;2022-08-11T07:26:23;19.10;99.90
52849;DHT22;38714;53.180;5.812;2022-08-11T07:29:09;19.10;99.90
52849;DHT22;38714;53.180;5.812;2022-08-11T07:31:40;19.20;99.90
52849;DHT22;38714;53.180;5.812;2022-08-11T07:34:18;19.20;99.90
52849;DHT22;38714;53.180;5.812;2022-08-11T07:36:46;19.30;99.90
52849;DHT22;38714;53.180;5.812;2022-08-11T07:39:20;19.30;99.90
52849;DHT22;38714;53.180;5.812;2022-08-11T07:41:47;19.40;99.90
52849;DHT22;38714;53.180;5.812;2022-08-11T07:44:13;19.40;99.90
52849;DHT22;38714;53.180;5.812;2022-08-11T07:46:41;19.50;99.90
52849;DHT22;38714;53.180;5.812;2022-08-11T07:49:25;19.60;99.90
52849;DHT22;38714;53.180;5.812;2022-08-11T07:52:10;19.70;99.90
52849;DHT22;38714;53.180;5.812;2022-08-11T07:54:54;19.70;99.90
52849;DHT22;38714;53.180;5.812;2022-08-11T07:57:20;19.80;99.90
52849;DHT22;38714;53.180;5.812;2022-08-11T08:00:04;19.80;99.90
52849;DHT22;38714;53.180;5.812;2022-08-11T08:02:48;19.90;99.90
52849;DHT22;38714;53.180;5.812;2022-08-11T08:05:33;20.00;99.90
52849;DHT22;38714;53.180;5.812;2022-08-11T08:08:17;20.00;99.90
52849;DHT22;38714;53.180;5.812;2022-08-11T08:11:01;20.10;99.90
52849;DHT22;38714;53.180;5.812;2022-08-11T08:13:46;20.10;99.90
52849;DHT22;38714;53.180;5.812;2022-08-11T08:16:30;20.20;99.90
52849;DHT22;38714;53.180;5.812;2022-08-11T08:19:16;20.30;99.90
52849;DHT22;38714;53.180;5.812;2022-08-11T08:21:43;20.30;99.90
52849;DHT22;38714;53.180;5.812;2022-08-11T08:24:09;20.40;99.90
52849;DHT22;38714;53.180;5.812;2022-08-11T08:26:35;20.40;99.90
52849;DHT22;38714;53.180;5.812;2022-08-11T08:29:20;20.40;99.90
52849;DHT22;38714;53.180;5.812;2022-08-11T08:32:05;20.50;99.90
52849;DHT22;38714;53.180;5.812;2022-08-11T08:34:31;20.50;99.90
52849;DHT22;38714;53.180;5.812;2022-08-11T08:36:57;20.50;99.90
52849;DHT22;38714;53.180;5.812;2022-08-11T08:39:24;20.60;99.90
52849;DHT22;38714;53.180;5.812;2022-08-11T08:41:51;20.70;99.90
52849;DHT22;38714;53.180;5.812;2022-08-11T08:44:18;20.70;99.90
52849;DHT22;38714;53.180;5.812;2022-08-11T08:46:48;20.70;99.90
52849;DHT22;38714;53.180;5.812;2022-08-11T08:49:15;20.80;99.90
52849;DHT22;38714;53.180;5.812;2022-08-11T08:51:42;20.80;99.90
52849;DHT22;38714;53.180;5.812;2022-08-11T08:54:10;20.80;99.90
52849;DHT22;38714;53.180;5.812;2022-08-11T08:56:38;20.90;99.90
52849;DHT22;38714;53.180;5.812;2022-08-11T08:59:04;20.90;99.90
52849;DHT22;38714;53.180;5.812;2022-08-11T09:01:35;21.00;99.90
52849;DHT22;38714;53.180;5.812;2022-08-11T09:04:08;21.10;99.90
52849;DHT22;38714;53.180;5.812;2022-08-11T09:06:37;21.20;99.90
52849;DHT22;38714;53.180;5.812;2022-08-11T09:09:09;21.20;99.90
52849;DHT22;38714;53.180;5.812;2022-08-11T09:11:36;21.30;99.90
52849;DHT22;38714;53.180;5.812;2022-08-11T09:14:15;21.40;99.90
52849;DHT22;38714;53.180;5.812;2022-08-11T09:16:41;21.40;99.90
52849;DHT22;38714;53.180;5.812;2022-08-11T09:19:08;21.40;99.90
52849;DHT22;38714;53.180;5.812;2022-08-11T09:21:34;21.50;99.90
52849;DHT22;38714;53.180;5.812;2022-08-11T09:24:00;21.50;99.90
52849;DHT22;38714;53.180;5.812;2022-08-11T09:26:44;21.60;99.90
52849;DHT22;38714;53.180;5.812;2022-08-11T09:29:28;21.60;99.90
52849;DHT22;38714;53.180;5.812;2022-08-11T09:31:55;21.70;99.90
52849;DHT22;38714;53.180;5.812;2022-08-11T09:34:22;21.80;99.90
52849;DHT22;38714;53.180;5.812;2022-08-11T09:36:48;21.80;99.90
52849;DHT22;38714;53.180;5.812;2022-08-11T09:39:35;21.80;99.90
52849;DHT22;38714;53.180;5.812;2022-08-11T09:42:19;21.90;99.90
52849;DHT22;38714;53.180;5.812;2022-08-11T09:44:45;21.90;99.90
52849;DHT22;38714;53.180;5.812;2022-08-11T09:47:16;22.00;99.90
52849;DHT22;38714;53.180;5.812;2022-08-11T09:49:43;22.10;99.90
52849;DHT22;38714;53.180;5.812;2022-08-11T09:52:09;22.10;99.90
52849;DHT22;38714;53.180;5.812;2022-08-11T09:54:38;22.10;99.90
52849;DHT22;38714;53.180;5.812;2022-08-11T09:57:04;22.20;99.90
52849;DHT22;38714;53.180;5.812;2022-08-11T10:00:03;22.20;99.90
52849;DHT22;38714;53.180;5.812;2022-08-11T10:02:29;22.30;99.90
52849;DHT22;38714;53.180;5.812;2022-08-11T10:04:55;22.30;99.90
52849;DHT22;38714;53.180;5.812;2022-08-11T10:07:43;22.40;99.90
52849;DHT22;38714;53.180;5.812;2022-08-11T10:10:18;22.50;99.90
52849;DHT22;38714;53.180;5.812;2022-08-11T10:12:51;22.50;99.90
52849;DHT22;38714;53.180;5.812;2022-08-11T10:15:19;22.50;99.90
52849;DHT22;38714;53.180;5.812;2022-08-11T10:18:02;22.50;99.90
52849;DHT22;38714;53.180;5.812;2022-08-11T10:20:47;22.50;99.90
52849;DHT22;38714;53.180;5.812;2022-08-11T10:23:14;22.70;99.90
52849;DHT22;38714;53.180;5.812;2022-08-11T10:25:58;22.80;99.90
52849;DHT22;38714;53.180;5.812;2022-08-11T10:28:43;22.80;99.90
52849;DHT22;38714;53.180;5.812;2022-08-11T10:31:09;22.90;99.90
52849;DHT22;38714;53.180;5.812;2022-08-11T10:33:53;22.90;99.90
52849;DHT22;38714;53.180;5.812;2022-08-11T10:36:26;22.90;99.90
52849;DHT22;38714;53.180;5.812;2022-08-11T10:38:52;23.00;99.90
52849;DHT22;38714;53.180;5.812;2022-08-11T10:41:18;23.00;99.90
52849;DHT22;38714;53.180;5.812;2022-08-11T10:44:03;23.00;99.90
52849;DHT22;38714;53.180;5.812;2022-08-11T10:46:30;23.10;99.90
52849;DHT22;38714;53.180;5.812;2022-08-11T10:49:14;23.10;99.90
52849;DHT22;38714;53.180;5.812;2022-08-11T10:51:40;23.10;99.90
52849;DHT22;38714;53.180;5.812;2022-08-11T10:54:25;23.10;99.90
52849;DHT22;38714;53.180;5.812;2022-08-11T10:57:08;23.30;99.90
52849;DHT22;38714;53.180;5.812;2022-08-11T10:59:53;23.30;99.90
52849;DHT22;38714;53.180;5.812;2022-08-11T11:02:19;23.30;99.90
52849;DHT22;38714;53.180;5.812;2022-08-11T11:07:20;23.40;99.90
52849;DHT22;38714;53.180;5.812;2022-08-11T11:09:49;23.40;99.90
52849;DHT22;38714;53.180;5.812;2022-08-11T11:15:17;23.50;99.90
52849;DHT22;38714;53.180;5.812;2022-08-11T11:18:11;23.60;99.20
52849;DHT22;38714;53.180;5.812;2022-08-11T11:20:47;23.60;99.90
52849;DHT22;38714;53.180;5.812;2022-08-11T11:28:41;23.70;99.90
52849;DHT22;38714;53.180;5.812;2022-08-11T11:31:12;23.80;99.90
52849;DHT22;38714;53.180;5.812;2022-08-11T11:36:37;23.80;99.90
52849;DHT22;38714;53.180;5.812;2022-08-11T11:38:58;23.80;99.90
52849;DHT22;38714;53.180;5.812;2022-08-11T11:41:23;23.90;99.90
52849;DHT22;38714;53.180;5.812;2022-08-11T11:43:50;24.00;99.90
52849;DHT22;38714;53.180;5.812;2022-08-11T11:46:16;24.10;99.90
52849;DHT22;38714;53.180;5.812;2022-08-11T11:48:42;24.10;99.90
52849;DHT22;38714;53.180;5.812;2022-08-11T11:51:08;24.10;99.90
52849;DHT22;38714;53.180;5.812;2022-08-11T11:53:33;24.10;99.90
52849;DHT22;38714;53.180;5.812;2022-08-11T11:55:59;24.10;99.90
52849;DHT22;38714;53.180;5.812;2022-08-11T11:58:26;24.10;99.90
52849;DHT22;38714;53.180;5.812;2022-08-11T12:01:11;24.10;99.90
52849;DHT22;38714;53.180;5.812;2022-08-11T12:03:40;24.20;99.90
52849;DHT22;38714;53.180;5.812;2022-08-11T12:06:08;24.20;99.90
52849;DHT22;38714;53.180;5.812;2022-08-11T12:08:36;24.30;99.90
52849;DHT22;38714;53.180;5.812;2022-08-11T12:11:02;24.30;99.90
52849;DHT22;38714;53.180;5.812;2022-08-11T12:13:47;24.20;99.90
52849;DHT22;38714;53.180;5.812;2022-08-11T12:16:14;24.30;99.90
52849;DHT22;38714;53.180;5.812;2022-08-11T12:18:40;24.30;99.90
52849;DHT22;38714;53.180;5.812;2022-08-11T12:21:07;24.40;99.80
52849;DHT22;38714;53.180;5.812;2022-08-11T12:23:34;24.40;99.30
52849;DHT22;38714;53.180;5.812;2022-08-11T12:26:18;24.50;98.60
52849;DHT22;38714;53.180;5.812;2022-08-11T12:29:05;24.60;99.90
52849;DHT22;38714;53.180;5.812;2022-08-11T12:31:32;24.60;99.70
52849;DHT22;38714;53.180;5.812;2022-08-11T12:34:02;24.60;97.30
52849;DHT22;38714;53.180;5.812;2022-08-11T12:36:28;24.70;97.90
52849;DHT22;38714;53.180;5.812;2022-08-11T12:38:57;24.70;98.00
52849;DHT22;38714;53.180;5.812;2022-08-11T12:41:24;24.70;96.10
52849;DHT22;38714;53.180;5.812;2022-08-11T12:44:09;24.80;96.00
52849;DHT22;38714;53.180;5.812;2022-08-11T12:46:54;24.90;96.40
52849;DHT22;38714;53.180;5.812;2022-08-11T12:49:21;24.90;94.60
52849;DHT22;38714;53.180;5.812;2022-08-11T12:52:07;24.90;95.30
52849;DHT22;38714;53.180;5.812;2022-08-11T12:54:34;24.90;94.90
52849;DHT22;38714;53.180;5.812;2022-08-11T12:57:02;24.90;95.50
52849;DHT22;38714;53.180;5.812;2022-08-11T12:59:48;24.90;96.20
52849;DHT22;38714;53.180;5.812;2022-08-11T13:02:33;24.90;93.10
52849;DHT22;38714;53.180;5.812;2022-08-11T13:05:18;25.00;95.20
52849;DHT22;38714;53.180;5.812;2022-08-11T13:07:44;25.00;93.20
52849;DHT22;38714;53.180;5.812;2022-08-11T13:10:12;25.10;95.00
52849;DHT22;38714;53.180;5.812;2022-08-11T13:12:38;25.20;93.80
52849;DHT22;38714;53.180;5.812;2022-08-11T13:15:14;25.10;94.40
52849;DHT22;38714;53.180;5.812;2022-08-11T13:17:41;25.10;93.50
52849;DHT22;38714;53.180;5.812;2022-08-11T13:20:11;25.10;94.30
52849;DHT22;38714;53.180;5.812;2022-08-11T13:22:38;25.20;90.90
52849;DHT22;38714;53.180;5.812;2022-08-11T13:25:05;25.20;92.30
52849;DHT22;38714;53.180;5.812;2022-08-11T13:27:31;25.30;92.20
52849;DHT22;38714;53.180;5.812;2022-08-11T13:29:57;25.30;93.60
52849;DHT22;38714;53.180;5.812;2022-08-11T13:33:02;25.30;94.40
52849;DHT22;38714;53.180;5.812;2022-08-11T13:35:29;25.30;98.20
52849;DHT22;38714;53.180;5.812;2022-08-11T13:37:55;25.40;99.90
52849;DHT22;38714;53.180;5.812;2022-08-11T13:40:21;25.40;99.90
52849;DHT22;38714;53.180;5.812;2022-08-11T13:42:49;25.50;98.00
52849;DHT22;38714;53.180;5.812;2022-08-11T13:45:15;25.50;98.20
52849;DHT22;38714;53.180;5.812;2022-08-11T13:47:41;25.60;99.90
52849;DHT22;38714;53.180;5.812;2022-08-11T13:50:07;25.70;99.90
52849;DHT22;38714;53.180;5.812;2022-08-11T13:52:34;25.70;99.50
52849;DHT22;38714;53.180;5.812;2022-08-11T13:55:00;25.70;99.90
52849;DHT22;38714;53.180;5.812;2022-08-11T13:57:26;25.70;99.90
52849;DHT22;38714;53.180;5.812;2022-08-11T13:59:54;25.70;98.60
52849;DHT22;38714;53.180;5.812;2022-08-11T14:02:34;25.70;99.10
52849;DHT22;38714;53.180;5.812;2022-08-11T14:05:02;25.80;99.60
52849;DHT22;38714;53.180;5.812;2022-08-11T14:07:32;25.70;98.60
52849;DHT22;38714;53.180;5.812;2022-08-11T14:09:59;25.70;97.30
52849;DHT22;38714;53.180;5.812;2022-08-11T14:12:26;25.70;98.00
52849;DHT22;38714;53.180;5.812;2022-08-11T14:15:13;25.80;96.80
52849;DHT22;38714;53.180;5.812;2022-08-11T14:17:44;25.80;96.80
52849;DHT22;38714;53.180;5.812;2022-08-11T14:20:11;25.80;96.50
52849;DHT22;38714;53.180;5.812;2022-08-11T14:22:40;25.80;96.40
52849;DHT22;38714;53.180;5.812;2022-08-11T14:25:07;25.80;96.60
52849;DHT22;38714;53.180;5.812;2022-08-11T14:27:33;25.80;97.10
52849;DHT22;38714;53.180;5.812;2022-08-11T14:29:59;25.80;95.60
52849;DHT22;38714;53.180;5.812;2022-08-11T14:32:25;25.80;94.80
52849;DHT22;38714;53.180;5.812;2022-08-11T14:34:50;25.80;93.10
52849;DHT22;38714;53.180;5.812;2022-08-11T14:37:20;25.80;94.60
52849;DHT22;38714;53.180;5.812;2022-08-11T14:39:47;25.80;92.00
52849;DHT22;38714;53.180;5.812;2022-08-11T14:42:15;25.80;94.10
52849;DHT22;38714;53.180;5.812;2022-08-11T14:45:00;25.80;94.30
52849;DHT22;38714;53.180;5.812;2022-08-11T14:47:28;25.80;91.60
52849;DHT22;38714;53.180;5.812;2022-08-11T14:49:54;25.80;94.00
52849;DHT22;38714;53.180;5.812;2022-08-11T14:52:20;25.80;93.30
52849;DHT22;38714;53.180;5.812;2022-08-11T14:54:46;25.80;92.40
52849;DHT22;38714;53.180;5.812;2022-08-11T14:57:32;25.80;90.70
52849;DHT22;38714;53.180;5.812;2022-08-11T15:00:00;25.80;92.60
52849;DHT22;38714;53.180;5.812;2022-08-11T15:02:27;25.90;91.30
52849;DHT22;38714;53.180;5.812;2022-08-11T15:05:12;25.80;92.80
52849;DHT22;38714;53.180;5.812;2022-08-11T15:07:38;25.90;90.80
52849;DHT22;38714;53.180;5.812;2022-08-11T15:10:04;25.90;90.70
52849;DHT22;38714;53.180;5.812;2022-08-11T15:12:32;25.90;91.40
52849;DHT22;38714;53.180;5.812;2022-08-11T15:14:58;25.90;91.50
52849;DHT22;38714;53.180;5.812;2022-08-11T15:17:42;25.90;91.10
52849;DHT22;38714;53.180;5.812;2022-08-11T15:20:09;25.90;91.00
52849;DHT22;38714;53.180;5.812;2022-08-11T15:22:54;25.90;93.50
52849;DHT22;38714;53.180;5.812;2022-08-11T15:25:39;25.90;94.00
52849;DHT22;38714;53.180;5.812;2022-08-11T15:28:05;25.90;92.40
52849;DHT22;38714;53.180;5.812;2022-08-11T15:30:52;26.00;93.50
52849;DHT22;38714;53.180;5.812;2022-08-11T15:33:37;26.00;92.50
52849;DHT22;38714;53.180;5.812;2022-08-11T15:36:21;26.00;91.80
52849;DHT22;38714;53.180;5.812;2022-08-11T15:39:18;26.00;92.40
52849;DHT22;38714;53.180;5.812;2022-08-11T15:41:45;26.00;94.60
52849;DHT22;38714;53.180;5.812;2022-08-11T15:44:30;26.00;95.40
52849;DHT22;38714;53.180;5.812;2022-08-11T15:47:15;26.00;95.40
52849;DHT22;38714;53.180;5.812;2022-08-11T15:49:43;26.00;93.90
52849;DHT22;38714;53.180;5.812;2022-08-11T15:52:09;26.00;92.80
52849;DHT22;38714;53.180;5.812;2022-08-11T15:54:38;26.00;92.70
52849;DHT22;38714;53.180;5.812;2022-08-11T15:57:06;26.00;91.50
52849;DHT22;38714;53.180;5.812;2022-08-11T15:59:32;25.90;92.40
52849;DHT22;38714;53.180;5.812;2022-08-11T16:02:18;25.90;93.20
52849;DHT22;38714;53.180;5.812;2022-08-11T16:05:05;25.90;91.80
52849;DHT22;38714;53.180;5.812;2022-08-11T16:07:32;25.90;92.10
52849;DHT22;38714;53.180;5.812;2022-08-11T16:12:31;25.80;92.30
52849;DHT22;38714;53.180;5.812;2022-08-11T16:15:04;25.80;92.20
52849;DHT22;38714;53.180;5.812;2022-08-11T16:17:50;25.80;92.00
52849;DHT22;38714;53.180;5.812;2022-08-11T16:20:18;25.90;92.30
52849;DHT22;38714;53.180;5.812;2022-08-11T16:22:45;25.90;92.50
52849;DHT22;38714;53.180;5.812;2022-08-11T16:25:16;25.90;94.50
52849;DHT22;38714;53.180;5.812;2022-08-11T16:27:43;25.90;93.00
52849;DHT22;38714;53.180;5.812;2022-08-11T16:30:09;25.80;91.80
52849;DHT22;38714;53.180;5.812;2022-08-11T16:32:35;25.90;93.20
52849;DHT22;38714;53.180;5.812;2022-08-11T16:35:04;25.90;90.10
52849;DHT22;38714;53.180;5.812;2022-08-11T16:37:49;25.90;91.10
52849;DHT22;38714;53.180;5.812;2022-08-11T16:40:34;25.90;91.90
52849;DHT22;38714;53.180;5.812;2022-08-11T16:43:02;25.90;92.20
52849;DHT22;38714;53.180;5.812;2022-08-11T16:45:48;25.90;91.40
52849;DHT22;38714;53.180;5.812;2022-08-11T16:48:33;26.00;91.10
52849;DHT22;38714;53.180;5.812;2022-08-11T16:50:59;26.00;88.10
52849;DHT22;38714;53.180;5.812;2022-08-11T16:53:26;26.00;90.90
52849;DHT22;38714;53.180;5.812;2022-08-11T16:55:52;26.00;89.90
52849;DHT22;38714;53.180;5.812;2022-08-11T16:58:19;26.00;92.50
52849;DHT22;38714;53.180;5.812;2022-08-11T17:01:04;26.10;92.60
52849;DHT22;38714;53.180;5.812;2022-08-11T17:03:31;26.10;92.70
52849;DHT22;38714;53.180;5.812;2022-08-11T17:06:15;26.10;91.90
52849;DHT22;38714;53.180;5.812;2022-08-11T17:09:00;26.00;93.00
52849;DHT22;38714;53.180;5.812;2022-08-11T17:11:50;25.90;93.90
52849;DHT22;38714;53.180;5.812;2022-08-11T17:14:35;25.90;94.00
52849;DHT22;38714;53.180;5.812;2022-08-11T17:17:03;25.90;91.80
52849;DHT22;38714;53.180;5.812;2022-08-11T17:19:30;25.90;91.10
52849;DHT22;38714;53.180;5.812;2022-08-11T17:21:56;25.90;93.80
52849;DHT22;38714;53.180;5.812;2022-08-11T17:24:42;25.90;91.50
52849;DHT22;38714;53.180;5.812;2022-08-11T17:27:08;25.90;93.50
52849;DHT22;38714;53.180;5.812;2022-08-11T17:29:42;25.90;93.90
52849;DHT22;38714;53.180;5.812;2022-08-11T17:32:12;25.90;93.20
52849;DHT22;38714;53.180;5.812;2022-08-11T17:35:00;25.90;93.30
52849;DHT22;38714;53.180;5.812;2022-08-11T17:37:45;25.90;92.90
52849;DHT22;38714;53.180;5.812;2022-08-11T17:40:12;25.90;91.70
52849;DHT22;38714;53.180;5.812;2022-08-11T17:42:40;25.80;93.00
52849;DHT22;38714;53.180;5.812;2022-08-11T17:45:26;25.80;93.20
52849;DHT22;38714;53.180;5.812;2022-08-11T17:48:11;25.80;91.30
52849;DHT22;38714;53.180;5.812;2022-08-11T17:50:53;25.70;92.90
52849;DHT22;38714;53.180;5.812;2022-08-11T17:53:20;25.70;92.60
52849;DHT22;38714;53.180;5.812;2022-08-11T17:56:04;25.70;93.30
52849;DHT22;38714;53.180;5.812;2022-08-11T17:58:49;25.70;92.90
52849;DHT22;38714;53.180;5.812;2022-08-11T18:01:36;25.60;90.80
52849;DHT22;38714;53.180;5.812;2022-08-11T18:04:03;25.60;92.90
52849;DHT22;38714;53.180;5.812;2022-08-11T18:06:30;25.50;92.20
52849;DHT22;38714;53.180;5.812;2022-08-11T18:08:56;25.50;92.70
52849;DHT22;38714;53.180;5.812;2022-08-11T18:11:41;25.40;93.20
52849;DHT22;38714;53.180;5.812;2022-08-11T18:14:25;25.40;93.20
52849;DHT22;38714;53.180;5.812;2022-08-11T18:17:10;25.40;93.20
52849;DHT22;38714;53.180;5.812;2022-08-11T18:19:54;25.30;94.70
52849;DHT22;38714;53.180;5.812;2022-08-11T18:22:40;25.20;94.30
52849;DHT22;38714;53.180;5.812;2022-08-11T18:25:26;25.20;94.80
52849;DHT22;38714;53.180;5.812;2022-08-11T18:28:11;25.20;93.90
52849;DHT22;38714;53.180;5.812;2022-08-11T18:30:58;25.10;94.50
52849;DHT22;38714;53.180;5.812;2022-08-11T18:33:46;25.00;94.70
52849;DHT22;38714;53.180;5.812;2022-08-11T18:36:34;25.00;94.70
52849;DHT22;38714;53.180;5.812;2022-08-11T18:39:18;24.90;95.70
52849;DHT22;38714;53.180;5.812;2022-08-11T18:42:05;24.90;96.40
52849;DHT22;38714;53.180;5.812;2022-08-11T18:44:50;24.80;97.00
52849;DHT22;38714;53.180;5.812;2022-08-11T18:47:35;24.80;97.90
52849;DHT22;38714;53.180;5.812;2022-08-11T18:50:19;24.60;97.80
52849;DHT22;38714;53.180;5.812;2022-08-11T18:53:04;24.60;98.80
52849;DHT22;38714;53.180;5.812;2022-08-11T18:55:49;24.60;99.30
52849;DHT22;38714;53.180;5.812;2022-08-11T18:58:34;24.50;99.00